Time;durP1;ratioP1;P1;durP2;ratioP2;P2;SDS_P1;SDS_P2;PMS_P1;PMS_P2;Temp;Humidity;BMP_temperature;BMP_pressure;BME280_temperature;BME280_humidity;BME280_pressure;Samples;Min_cycle;Max_cycle;Signal;HPM_P1;HPM_P2
2023/06/06 00:01:32;;;;;;;12.20;9.05;;;;;;;13.77;84.36;101816.03;5040667;28;20059;-72
2023/06/06 00:03:58;;;;;;;11.88;9.02;;;;;;;13.72;84.82;101823.44;5034104;28;20375;-72
2023/06/06 00:06:25;;;;;;;11.43;9.07;;;;;;;13.76;84.65;101819.69;5041247;28;20505;-71
2023/06/06 00:08:52;;;;;;;11.07;9.07;;;;;;;13.64;85.37;101826.47;5041602;28;20171;-71
2023/06/06 00:11:21;;;;;;;11.38;9.57;;;;;;;13.43;86.32;101818.53;5039372;28;20029;-72
2023/06/06 00:13:49;;;;;;;11.98;8.73;;;;;;;13.53;85.95;101812.75;5040727;28;20123;-73
2023/06/06 00:16:16;;;;;;;12.68;9.20;;;;;;;13.42;86.37;101822.16;5035680;28;20029;-72
2023/06/06 00:22:04;;;;;;;12.57;9.80;;;;;;;13.38;86.34;101815.22;5014636;23;20064;-73
2023/06/06 00:24:29;;;;;;;11.18;9.80;;;;;;;13.22;87.27;101808.81;5002308;28;20033;-72
2023/06/06 00:26:55;;;;;;;13.48;10.15;;;;;;;13.20;87.20;101810.69;4998062;28;20446;-74
2023/06/06 00:29:20;;;;;;;12.15;9.15;;;;;;;13.21;86.81;101807.94;4978947;28;20030;-72
2023/06/06 00:31:46;;;;;;;14.05;9.68;;;;;;;13.25;86.91;101807.81;5002457;28;20029;-73
2023/06/06 00:34:11;;;;;;;12.60;10.05;;;;;;;13.16;87.00;101807.28;4999448;28;20034;-72
2023/06/06 00:36:36;;;;;;;14.70;10.15;;;;;;;13.09;87.55;101807.66;4978501;28;20044;-72
2023/06/06 00:39:02;;;;;;;12.80;10.15;;;;;;;12.98;87.89;101810.81;4999014;28;20589;-72
2023/06/06 00:41:27;;;;;;;11.95;9.60;;;;;;;13.05;87.42;101817.63;5004264;28;20029;-73
2023/06/06 00:43:53;;;;;;;11.43;9.65;;;;;;;12.95;88.21;101821.63;4995920;28;20093;-72
2023/06/06 00:46:19;;;;;;;13.50;10.93;;;;;;;12.82;88.95;101821.31;4997694;28;20026;-72
2023/06/06 00:48:45;;;;;;;13.98;9.85;;;;;;;12.88;88.65;101810.38;4995775;28;20095;-71
2023/06/06 00:51:11;;;;;;;15.57;10.57;;;;;;;12.88;88.57;101817.50;5002864;28;20018;-73
2023/06/06 00:53:37;;;;;;;13.50;9.57;;;;;;;12.87;88.59;101808.59;4966720;28;20041;-72
2023/06/06 00:56:03;;;;;;;13.35;10.55;;;;;;;12.79;88.78;101815.22;4992809;28;20029;-72
2023/06/06 00:58:30;;;;;;;13.52;10.82;;;;;;;12.86;88.90;101817.56;5003774;28;20495;-73
2023/06/06 01:01:01;;;;;;;14.80;10.80;;;;;;;12.76;89.04;101816.25;5004560;28;20095;-71
2023/06/06 01:03:29;;;;;;;13.73;10.38;;;;;;;12.69;89.24;101812.97;4982860;28;20073;-72
2023/06/06 01:05:55;;;;;;;13.02;10.48;;;;;;;12.60;89.34;101812.53;4998248;28;20030;-72
2023/06/06 01:08:22;;;;;;;14.60;10.38;;;;;;;12.52;90.12;101820.00;5003255;28;20060;-72
2023/06/06 01:10:51;;;;;;;14.07;11.27;;;;;;;12.51;90.18;101812.94;4973062;28;20034;-71
2023/06/06 01:13:26;;;;;;;13.43;10.75;;;;;;;12.50;90.17;101813.84;4997117;28;20041;-72
2023/06/06 01:15:55;;;;;;;13.02;11.30;;;;;;;12.39;90.65;101809.84;5001560;28;20056;-71
2023/06/06 01:18:21;;;;;;;15.63;10.48;;;;;;;12.35;90.53;101813.56;4983210;28;20026;-73
2023/06/06 01:20:47;;;;;;;13.35;10.40;;;;;;;12.31;90.82;101809.31;5002113;28;20185;-73
2023/06/06 01:23:13;;;;;;;13.18;10.88;;;;;;;12.36;90.97;101815.31;4994040;28;20506;-72
2023/06/06 01:25:41;;;;;;;15.90;11.27;;;;;;;12.22;91.42;101815.03;5000529;28;20534;-72
2023/06/06 01:28:12;;;;;;;14.10;11.10;;;;;;;12.12;92.21;101811.00;4998847;28;20033;-72
2023/06/06 01:30:40;;;;;;;15.00;10.80;;;;;;;12.10;92.04;101808.41;4992883;28;20036;-72
2023/06/06 01:33:14;;;;;;;15.35;10.68;;;;;;;12.07;92.18;101816.53;5001645;28;20032;-73
2023/06/06 01:36:11;;;;;;;14.15;10.85;;;;;;;12.12;91.94;101817.25;5002050;28;20088;-72
2023/06/06 01:39:07;;;;;;;14.90;10.80;;;;;;;12.00;92.19;101823.06;5000002;28;20112;-72
2023/06/06 01:41:36;;;;;;;16.92;10.57;;;;;;;11.98;92.68;101811.59;4999144;28;20041;-71
2023/06/06 01:44:05;;;;;;;13.90;10.82;;;;;;;11.91;93.32;101818.09;4997636;28;20041;-71
2023/06/06 01:46:33;;;;;;;14.77;11.07;;;;;;;11.82;93.45;101816.63;4996077;28;20049;-73
2023/06/06 01:48:58;;;;;;;12.98;10.60;;;;;;;11.82;93.19;101808.63;4994555;28;20033;-73
2023/06/06 01:51:27;;;;;;;14.02;10.50;;;;;;;11.73;94.08;101817.00;4997197;28;20033;-72
2023/06/06 01:53:54;;;;;;;12.00;10.10;;;;;;;11.78;93.97;101815.03;4991597;28;20037;-73
2023/06/06 01:56:21;;;;;;;13.63;10.85;;;;;;;11.77;93.68;101807.09;4994799;28;20042;-72
2023/06/06 01:58:48;;;;;;;15.30;10.88;;;;;;;11.69;94.24;101808.25;4995884;28;20112;-70
2023/06/06 02:01:13;;;;;;;13.05;10.57;;;;;;;11.62;95.13;101816.56;4992237;28;20042;-72
2023/06/06 02:03:39;;;;;;;15.15;10.90;;;;;;;11.56;94.87;101809.69;4992958;28;20034;-72
2023/06/06 02:06:05;;;;;;;13.43;10.93;;;;;;;11.59;94.99;101806.03;4988865;28;20034;-72
2023/06/06 02:08:30;;;;;;;13.63;11.15;;;;;;;11.57;95.11;101813.22;4993432;28;20083;-72
2023/06/06 02:10:56;;;;;;;15.32;11.57;;;;;;;11.50;95.27;101815.28;4992707;28;20512;-72
2023/06/06 02:13:21;;;;;;;15.00;11.48;;;;;;;11.40;95.92;101812.09;5001555;28;20041;-72
2023/06/06 02:15:47;;;;;;;14.60;11.23;;;;;;;11.38;96.06;101815.75;4999638;28;20026;-72
2023/06/06 02:18:12;;;;;;;14.68;11.15;;;;;;;11.37;96.13;101808.66;5001591;28;20371;-72
2023/06/06 02:20:38;;;;;;;12.88;11.10;;;;;;;11.39;96.18;101810.34;4996345;28;20045;-72
2023/06/06 02:23:03;;;;;;;15.68;12.05;;;;;;;11.33;95.99;101805.28;5000253;28;20377;-72
2023/06/06 02:25:28;;;;;;;13.32;10.00;;;;;;;11.40;95.72;101814.75;5001144;28;20538;-71
2023/06/06 02:27:55;;;;;;;14.93;11.30;;;;;;;11.34;96.17;101820.31;5000701;28;20037;-72
2023/06/06 02:30:22;;;;;;;14.27;10.85;;;;;;;11.36;96.00;101813.13;5005253;28;20025;-71
2023/06/06 02:32:50;;;;;;;16.65;11.43;;;;;;;11.33;95.95;101812.38;5004440;28;20045;-71
2023/06/06 02:35:18;;;;;;;15.13;11.65;;;;;;;11.23;96.44;101810.06;5002974;28;20531;-71
2023/06/06 02:37:43;;;;;;;14.65;11.55;;;;;;;11.36;95.89;101817.59;5002275;28;20033;-71
2023/06/06 02:40:10;;;;;;;15.05;11.48;;;;;;;11.20;96.45;101811.97;5006949;28;20391;-70
2023/06/06 02:42:38;;;;;;;14.98;11.25;;;;;;;11.18;96.70;101809.38;5003520;28;20045;-71
2023/06/06 02:45:05;;;;;;;16.67;10.63;;;;;;;11.16;96.55;101811.25;5005052;28;20053;-70
2023/06/06 02:47:30;;;;;;;14.02;11.38;;;;;;;11.13;96.67;101807.81;4986387;28;20033;-71
2023/06/06 02:49:56;;;;;;;15.80;11.23;;;;;;;11.06;97.61;101808.97;4999760;28;20569;-71
2023/06/06 02:52:22;;;;;;;16.30;11.38;;;;;;;11.07;97.69;101805.38;4995633;28;20034;-70
2023/06/06 02:54:47;;;;;;;16.15;11.50;;;;;;;11.02;97.77;101810.00;4998315;28;20026;-71
2023/06/06 02:57:12;;;;;;;15.93;12.13;;;;;;;11.00;97.61;101814.53;4991212;28;20617;-72
2023/06/06 02:59:38;;;;;;;15.23;11.40;;;;;;;10.98;97.69;101809.25;5001629;28;20034;-72
2023/06/06 03:02:04;;;;;;;16.05;11.90;;;;;;;10.95;98.00;101815.59;5002169;28;20029;-72
2023/06/06 03:04:29;;;;;;;14.15;11.15;;;;;;;10.90;98.33;101816.66;5004946;28;20371;-73
2023/06/06 03:06:56;;;;;;;16.58;11.65;;;;;;;10.88;98.08;101815.88;4997724;28;20095;-71
2023/06/06 03:09:24;;;;;;;15.10;11.38;;;;;;;10.71;98.77;101816.47;4986130;28;20041;-71
2023/06/06 03:11:49;;;;;;;15.80;12.35;;;;;;;10.71;99.30;101817.34;5004889;28;20392;-71
2023/06/06 03:14:15;;;;;;;14.88;11.20;;;;;;;10.85;98.46;101815.97;5004885;28;20029;-72
2023/06/06 03:16:41;;;;;;;15.65;11.77;;;;;;;10.69;99.04;101821.84;5003939;28;20038;-73
2023/06/06 03:19:07;;;;;;;15.40;11.40;;;;;;;10.72;99.07;101810.22;4998637;28;20037;-72
2023/06/06 03:21:36;;;;;;;14.60;11.43;;;;;;;10.76;98.77;101811.84;5005130;28;20042;-70
2023/06/06 03:24:03;;;;;;;16.52;12.60;;;;;;;10.66;98.82;101805.13;4999148;28;20144;-72
2023/06/06 03:26:28;;;;;;;16.35;11.93;;;;;;;10.68;98.96;101812.13;4978855;28;20030;-71
2023/06/06 03:28:56;;;;;;;15.63;11.90;;;;;;;10.60;99.42;101815.97;5003523;28;20476;-72
2023/06/06 03:31:23;;;;;;;14.80;11.95;;;;;;;10.54;99.64;101814.41;5004493;28;20029;-72
2023/06/06 03:33:50;;;;;;;16.30;11.98;;;;;;;10.55;99.77;101820.59;5003849;28;20030;-73
2023/06/06 03:36:16;;;;;;;19.50;11.75;;;;;;;10.55;99.91;101812.63;5002015;28;20552;-72
2023/06/06 03:38:41;;;;;;;16.55;12.13;;;;;;;10.52;99.93;101818.91;5002877;28;20048;-71
2023/06/06 03:41:07;;;;;;;14.93;11.30;;;;;;;10.48;100.00;101818.13;5004557;28;20456;-72
2023/06/06 03:43:32;;;;;;;14.27;11.23;;;;;;;10.55;99.75;101816.16;5000041;28;20045;-71
2023/06/06 03:45:58;;;;;;;15.75;11.65;;;;;;;10.43;100.00;101816.56;5001453;28;20033;-71
2023/06/06 03:48:24;;;;;;;16.20;12.15;;;;;;;10.40;100.00;101820.19;5003946;28;20026;-71
2023/06/06 03:50:49;;;;;;;17.17;11.95;;;;;;;10.45;100.00;101818.28;4993730;28;20033;-70
2023/06/06 03:53:16;;;;;;;14.90;12.18;;;;;;;10.41;100.00;101819.28;5002374;28;20392;-71
2023/06/06 03:55:41;;;;;;;17.23;11.45;;;;;;;10.52;99.78;101824.22;5001565;28;20095;-71
2023/06/06 03:58:07;;;;;;;16.38;11.57;;;;;;;10.53;99.67;101817.09;5002542;28;20345;-72
2023/06/06 04:00:32;;;;;;;16.67;12.45;;;;;;;10.52;99.93;101826.03;4999094;28;20033;-71
2023/06/06 04:02:58;;;;;;;14.55;10.93;;;;;;;10.47;99.69;101819.06;5003058;28;20037;-70
2023/06/06 04:05:23;;;;;;;15.65;11.88;;;;;;;10.46;100.00;101821.78;5002733;28;20123;-72
2023/06/06 04:07:49;;;;;;;17.55;12.93;;;;;;;10.52;99.93;101820.69;5003401;28;20029;-72
2023/06/06 04:10:14;;;;;;;14.55;12.07;;;;;;;10.40;100.00;101825.53;5003079;28;20041;-71
2023/06/06 04:12:39;;;;;;;17.83;11.73;;;;;;;10.43;100.00;101824.56;5004258;28;20088;-71
2023/06/06 04:15:06;;;;;;;14.68;11.40;;;;;;;10.45;100.00;101828.91;5002290;28;20018;-72
2023/06/06 04:17:32;;;;;;;15.85;12.45;;;;;;;10.42;99.97;101823.69;5002140;28;20566;-71
2023/06/06 04:19:57;;;;;;;15.75;11.88;;;;;;;10.51;100.00;101822.50;4985489;28;20117;-71
2023/06/06 04:22:23;;;;;;;16.02;12.40;;;;;;;10.56;99.65;101823.19;5003608;28;20443;-70
2023/06/06 04:24:48;;;;;;;14.18;11.57;;;;;;;10.47;99.66;101827.06;5001258;28;20503;-70
2023/06/06 04:27:16;;;;;;;13.98;11.88;;;;;;;10.54;99.66;101829.53;5000126;28;20030;-70
2023/06/06 04:29:42;;;;;;;14.10;11.18;;;;;;;10.48;99.42;101828.78;5004247;28;20093;-72
2023/06/06 04:32:08;;;;;;;14.02;11.80;;;;;;;10.59;99.44;101827.56;5003643;28;20163;-72
2023/06/06 04:34:39;;;;;;;15.90;12.15;;;;;;;10.63;99.41;101831.84;5002842;28;20026;-70
2023/06/06 04:37:05;;;;;;;16.67;12.15;;;;;;;10.67;98.83;101822.84;5001226;28;20037;-71
2023/06/06 04:39:32;;;;;;;14.70;12.23;;;;;;;10.67;98.75;101828.16;5004112;28;20379;-71
2023/06/06 04:41:58;;;;;;;14.38;11.68;;;;;;;10.73;98.34;101833.25;5003668;28;20495;-71
2023/06/06 04:44:25;;;;;;;16.70;13.00;;;;;;;10.64;98.62;101829.13;4992391;28;20025;-72
2023/06/06 04:46:52;;;;;;;15.82;12.02;;;;;;;10.67;98.90;101830.81;4997961;28;20495;-71
2023/06/06 04:49:19;;;;;;;15.88;12.30;;;;;;;10.78;98.40;101833.94;4998258;28;20038;-72
2023/06/06 04:51:44;;;;;;;15.65;11.93;;;;;;;10.84;98.48;101830.22;4995738;28;20031;-71
2023/06/06 04:54:10;;;;;;;17.35;12.45;;;;;;;10.80;98.17;101824.13;5000754;28;20123;-72
2023/06/06 04:56:38;;;;;;;15.48;12.43;;;;;;;10.81;97.88;101832.97;5002293;28;20057;-75
2023/06/06 04:59:08;;;;;;;14.38;11.80;;;;;;;10.90;97.95;101827.31;5001478;28;20041;-71
2023/06/06 05:01:36;;;;;;;17.10;12.63;;;;;;;10.98;97.78;101834.09;5002705;28;20026;-73
2023/06/06 05:04:04;;;;;;;15.00;12.27;;;;;;;10.99;97.58;101829.63;4996499;28;20132;-71
2023/06/06 05:06:31;;;;;;;15.60;12.55;;;;;;;10.97;97.23;101826.19;4972089;28;20083;-73
2023/06/06 05:09:07;;;;;;;18.13;12.60;;;;;;;11.02;97.68;101818.00;4983781;28;20192;-73
2023/06/06 05:11:33;;;;;;;16.83;11.95;;;;;;;11.17;97.34;101828.09;4971281;28;20040;-72
2023/06/06 05:13:59;;;;;;;15.88;12.43;;;;;;;11.16;97.14;101823.69;5000256;28;20057;-73
2023/06/06 05:16:25;;;;;;;17.27;12.90;;;;;;;11.24;96.89;101826.91;5001064;28;20056;-72
2023/06/06 05:18:50;;;;;;;15.27;12.93;;;;;;;11.33;96.23;101823.94;4999771;28;20033;-72
2023/06/06 05:21:16;;;;;;;15.68;12.27;;;;;;;11.45;96.01;101833.22;4999269;28;20049;-74
2023/06/06 05:23:41;;;;;;;15.73;12.27;;;;;;;11.53;95.64;101832.94;4999783;28;20037;-72
2023/06/06 05:26:06;;;;;;;14.90;11.77;;;;;;;11.70;95.32;101835.78;4996275;28;20057;-74
2023/06/06 05:28:32;;;;;;;16.17;12.55;;;;;;;11.76;94.41;101826.72;5001909;28;20115;-72
2023/06/06 05:30:57;;;;;;;15.05;12.52;;;;;;;11.82;94.22;101829.97;5000826;28;20038;-73
2023/06/06 05:33:25;;;;;;;15.63;11.90;;;;;;;12.00;93.35;101830.19;5000572;28;20042;-72
2023/06/06 05:35:51;;;;;;;18.00;11.48;;;;;;;11.97;93.23;101825.88;4990603;28;20364;-73
2023/06/06 05:38:16;;;;;;;14.38;12.15;;;;;;;12.05;92.75;101833.56;4983962;28;20065;-72
2023/06/06 05:40:42;;;;;;;13.40;11.65;;;;;;;12.14;92.14;101838.50;5001818;28;20037;-73
2023/06/06 05:43:08;;;;;;;16.10;12.50;;;;;;;12.27;91.78;101831.72;4997205;28;20088;-71
2023/06/06 05:45:33;;;;;;;14.98;12.48;;;;;;;12.32;90.97;101837.72;4999346;28;20038;-73
2023/06/06 05:47:58;;;;;;;15.15;12.38;;;;;;;12.40;90.34;101829.41;5001682;28;20061;-72
2023/06/06 05:50:24;;;;;;;15.75;12.18;;;;;;;12.49;89.99;101838.81;5001072;28;20140;-73
2023/06/06 05:52:50;;;;;;;14.10;11.63;;;;;;;12.58;89.75;101838.41;5001960;28;20025;-72
2023/06/06 05:55:33;;;;;;;17.80;12.38;;;;;;;12.68;89.69;101847.78;4981527;28;20484;-72
2023/06/06 05:57:59;;;;;;;15.13;12.47;;;;;;;12.92;89.66;101849.38;4994599;28;20025;-73
2023/06/06 06:00:26;;;;;;;17.63;12.25;;;;;;;13.01;88.08;101849.91;4998949;28;20374;-74
2023/06/06 06:02:53;;;;;;;15.88;11.73;;;;;;;13.19;87.15;101846.38;4979307;28;20046;-74
2023/06/06 06:05:19;;;;;;;18.02;12.73;;;;;;;13.18;86.01;101837.50;4981597;28;20096;-72
2023/06/06 06:07:47;;;;;;;13.90;11.75;;;;;;;13.40;85.55;101840.06;5003682;28;20499;-72
2023/06/06 06:10:13;;;;;;;14.50;11.18;;;;;;;13.64;84.81;101856.78;5001134;28;20042;-71
2023/06/06 06:12:39;;;;;;;13.45;11.15;;;;;;;13.75;84.21;101836.66;5006618;28;20033;-73
2023/06/06 06:15:05;;;;;;;17.70;12.15;;;;;;;13.87;83.55;101844.06;5002516;28;20022;-72
2023/06/06 06:17:30;;;;;;;13.43;11.15;;;;;;;14.11;82.79;101844.69;5003238;28;20442;-74
2023/06/06 06:19:56;;;;;;;15.55;12.45;;;;;;;14.28;81.92;101838.50;5007442;28;20030;-72
2023/06/06 06:22:22;;;;;;;13.45;11.15;;;;;;;14.36;80.79;101834.47;5003780;28;20057;-73
2023/06/06 06:24:48;;;;;;;15.65;12.13;;;;;;;14.56;80.50;101843.34;4998935;28;20104;-72
2023/06/06 06:27:13;;;;;;;14.88;11.10;;;;;;;14.59;78.98;101843.16;4985578;28;20034;-74
2023/06/06 06:29:38;;;;;;;13.35;10.80;;;;;;;14.81;78.91;101843.78;5003169;28;20045;-74
2023/06/06 06:32:04;;;;;;;14.73;11.38;;;;;;;14.77;78.28;101842.22;5003954;28;20030;-72
2023/06/06 06:34:29;;;;;;;14.38;11.18;;;;;;;15.09;77.63;101853.03;5002086;28;20113;-73
2023/06/06 06:36:54;;;;;;;13.77;11.15;;;;;;;15.34;76.67;101855.25;4999695;28;20034;-74
2023/06/06 06:39:20;;;;;;;14.82;11.77;;;;;;;15.19;75.87;101859.66;5002215;28;20084;-72
2023/06/06 06:41:46;;;;;;;12.55;11.20;;;;;;;15.43;75.38;101858.31;5004075;28;20049;-73
2023/06/06 06:44:11;;;;;;;13.32;11.18;;;;;;;15.33;74.96;101850.84;5000976;28;20038;-72
2023/06/06 06:46:37;;;;;;;14.50;11.27;;;;;;;15.44;75.61;101852.00;5002460;28;20128;-73
2023/06/06 06:51:27;;;;;;;27.98;12.20;;;;;;;15.59;74.09;101855.66;5013558;23;20075;-71
2023/06/06 06:53:53;;;;;;;14.43;11.65;;;;;;;15.80;73.71;101850.94;5001601;28;20249;-71
2023/06/06 06:56:18;;;;;;;15.23;11.55;;;;;;;16.02;72.73;101849.69;5003090;28;20034;-69
2023/06/06 06:58:44;;;;;;;16.20;11.63;;;;;;;16.23;71.91;101853.81;4997203;23;21814;-70
2023/06/06 07:01:10;;;;;;;15.32;10.65;;;;;;;16.02;71.50;101857.75;5013200;28;20034;-70
2023/06/06 07:03:36;;;;;;;13.02;10.98;;;;;;;16.35;71.73;101855.78;5022222;28;20063;-69
2023/06/06 07:06:14;;;;;;;14.88;10.88;;;;;;;16.39;71.83;101857.34;5008736;28;20435;-69
2023/06/06 07:08:44;;;;;;;13.02;10.65;;;;;;;16.50;70.63;101856.69;5013743;23;20058;-70
2023/06/06 07:11:10;;;;;;;13.90;11.07;;;;;;;16.58;70.61;101850.84;4997663;28;20030;-69
2023/06/06 07:13:36;;;;;;;13.85;11.23;;;;;;;16.59;70.50;101849.88;4999143;28;20025;-71
2023/06/06 07:16:01;;;;;;;13.52;11.02;;;;;;;16.56;69.83;101856.34;4980937;28;20077;-70
2023/06/06 07:18:26;;;;;;;12.35;10.30;;;;;;;16.83;69.75;101861.03;5005372;28;20025;-69
2023/06/06 07:20:52;;;;;;;14.40;11.48;;;;;;;17.05;69.42;101858.72;5002699;28;20287;-70
2023/06/06 07:23:17;;;;;;;14.27;11.00;;;;;;;17.28;68.28;101860.00;4982028;28;20065;-69
2023/06/06 07:25:42;;;;;;;14.68;11.13;;;;;;;17.23;67.62;101862.13;4986927;28;20044;-69
2023/06/06 07:28:10;;;;;;;13.95;11.23;;;;;;;17.36;67.06;101865.75;5004822;28;20387;-70
2023/06/06 07:30:36;;;;;;;12.60;10.63;;;;;;;17.63;65.99;101867.66;5005220;28;20515;-70
2023/06/06 07:33:01;;;;;;;13.30;10.52;;;;;;;18.23;65.34;101855.69;5003620;28;20036;-70
2023/06/06 07:35:32;;;;;;;16.83;11.85;;;;;;;18.59;63.74;101846.91;4987591;28;20026;-70
2023/06/06 07:38:02;;;;;;;11.75;10.20;;;;;;;19.02;61.68;101849.34;5004031;28;20021;-69
2023/06/06 07:40:27;;;;;;;16.08;11.38;;;;;;;19.32;59.96;101852.59;5003028;28;20462;-69
2023/06/06 07:42:54;;;;;;;13.23;10.57;;;;;;;19.41;60.00;101838.44;4996425;28;20109;-70
2023/06/06 07:45:20;;;;;;;13.98;10.32;;;;;;;19.98;58.93;101834.28;4986194;28;20028;-70
2023/06/06 07:47:45;;;;;;;13.80;10.60;;;;;;;20.39;57.37;101841.94;4996915;28;20098;-69
2023/06/06 07:50:11;;;;;;;13.43;10.40;;;;;;;20.73;55.34;101838.50;4998195;28;20030;-69
2023/06/06 07:52:43;;;;;;;11.88;10.40;;;;;;;20.82;54.40;101838.69;5001745;28;20087;-70
2023/06/06 07:55:09;;;;;;;15.93;10.50;;;;;;;21.07;54.14;101832.19;4985892;28;20018;-70
2023/06/06 07:57:34;;;;;;;13.15;10.00;;;;;;;21.35;53.25;101838.09;5002871;28;20144;-70
2023/06/06 08:00:00;;;;;;;11.25;9.13;;;;;;;21.93;51.69;101827.06;4996567;28;20639;-72
2023/06/06 08:02:26;;;;;;;12.90;10.32;;;;;;;22.30;51.30;101835.69;5001219;28;20495;-70
2023/06/06 08:04:52;;;;;;;13.27;9.52;;;;;;;22.86;49.28;101827.22;5002078;28;20534;-72
2023/06/06 08:07:18;;;;;;;14.18;10.77;;;;;;;22.92;48.15;101828.59;5001498;28;20591;-69
2023/06/06 08:09:43;;;;;;;13.68;10.23;;;;;;;23.09;47.69;101842.41;5003109;28;20033;-70
2023/06/06 08:12:10;;;;;;;13.70;9.75;;;;;;;23.14;48.01;101838.41;5001399;28;20376;-69
2023/06/06 08:14:36;;;;;;;12.45;9.88;;;;;;;23.14;47.37;101836.56;5004151;28;20026;-70
2023/06/06 08:17:05;;;;;;;13.95;10.00;;;;;;;23.47;47.01;101842.72;5003202;28;20018;-70
2023/06/06 08:19:31;;;;;;;12.43;10.43;;;;;;;23.41;46.26;101841.41;4975744;28;20120;-70
2023/06/06 08:21:57;;;;;;;17.15;10.80;;;;;;;23.67;46.65;101836.38;5000871;28;20598;-71
2023/06/06 08:24:22;;;;;;;11.40;9.43;;;;;;;23.90;45.49;101834.25;5000216;28;20499;-70
2023/06/06 08:26:49;;;;;;;12.90;9.70;;;;;;;24.22;44.46;101828.56;4997214;28;20054;-70
2023/06/06 08:29:14;;;;;;;11.57;9.70;;;;;;;24.41;43.13;101824.13;5002262;28;20100;-70
2023/06/06 08:31:40;;;;;;;10.95;9.25;;;;;;;24.66;43.15;101828.13;5001426;28;20048;-69
2023/06/06 08:34:07;;;;;;;13.60;9.73;;;;;;;25.03;41.97;101825.44;5001237;28;20033;-71
2023/06/06 08:36:32;;;;;;;12.07;8.52;;;;;;;25.13;41.74;101828.19;4979515;28;20472;-70
2023/06/06 08:38:58;;;;;;;11.05;9.15;;;;;;;25.25;41.63;101830.56;4998047;28;20196;-71
2023/06/06 08:41:25;;;;;;;11.77;9.23;;;;;;;25.81;41.08;101836.91;5000001;28;20032;-70
2023/06/06 08:43:53;;;;;;;13.55;9.43;;;;;;;26.22;40.02;101835.44;5000552;28;20276;-71
2023/06/06 08:46:18;;;;;;;11.07;9.20;;;;;;;26.35;39.01;101828.72;4999427;28;20030;-72
2023/06/06 08:48:46;;;;;;;12.27;9.23;;;;;;;26.93;38.70;101830.91;5003444;28;20029;-72
2023/06/06 08:51:12;;;;;;;12.13;8.98;;;;;;;27.17;37.69;101820.16;5001463;28;20227;-71
2023/06/06 08:53:38;;;;;;;10.00;8.45;;;;;;;27.61;37.19;101836.38;4995507;28;20030;-72
2023/06/06 08:56:06;;;;;;;12.20;8.93;;;;;;;27.31;36.13;101827.72;4996679;28;20080;-71
2023/06/06 08:58:32;;;;;;;10.95;8.55;;;;;;;28.08;35.91;101822.16;4997926;28;20038;-71
2023/06/06 09:00:59;;;;;;;12.52;8.75;;;;;;;28.72;35.59;101814.16;5001267;28;20037;-72
2023/06/06 09:03:27;;;;;;;9.52;8.45;;;;;;;29.10;33.93;101825.41;5000413;28;20184;-73
2023/06/06 09:05:53;;;;;;;11.02;8.68;;;;;;;29.22;33.20;101823.97;5001860;28;20037;-72
2023/06/06 09:08:19;;;;;;;10.20;8.55;;;;;;;29.47;32.85;101821.97;4997891;28;20057;-72
2023/06/06 09:10:45;;;;;;;10.45;7.90;;;;;;;29.30;33.41;101832.16;4996545;28;20052;-72
2023/06/06 09:13:10;;;;;;;10.10;8.35;;;;;;;29.46;32.46;101836.75;4998620;28;20026;-72
2023/06/06 09:15:35;;;;;;;13.95;8.48;;;;;;;29.24;32.05;101833.75;4995119;28;20030;-73
2023/06/06 09:18:03;;;;;;;10.32;8.20;;;;;;;29.38;32.72;101834.88;5001421;28;20029;-72
2023/06/06 09:20:29;;;;;;;8.40;7.60;;;;;;;29.32;32.08;101832.00;5003390;28;20037;-72
2023/06/06 09:22:57;;;;;;;10.15;8.30;;;;;;;29.41;32.10;101825.47;5000642;28;20032;-70
2023/06/06 09:25:27;;;;;;;11.13;8.48;;;;;;;29.51;32.15;101828.81;5003596;28;20495;-70
2023/06/06 09:28:03;;;;;;;13.35;8.00;;;;;;;30.07;32.54;101834.22;4996112;28;20049;-71
2023/06/06 09:30:30;;;;;;;11.27;8.20;;;;;;;29.79;31.22;101826.50;5001077;28;20032;-70
2023/06/06 09:32:58;;;;;;;9.80;8.32;;;;;;;30.42;30.99;101817.13;4997599;28;20036;-70
2023/06/06 09:35:28;;;;;;;10.48;7.32;;;;;;;30.97;30.26;101815.91;5000753;28;20033;-71
2023/06/06 09:37:54;;;;;;;11.15;7.57;;;;;;;31.37;29.60;101818.41;5001996;28;20021;-71
2023/06/06 09:40:20;;;;;;;13.13;7.90;;;;;;;31.06;29.44;101815.81;4982540;28;20032;-71
2023/06/06 09:42:46;;;;;;;14.02;8.63;;;;;;;31.23;29.53;101814.63;4988907;28;20032;-71
2023/06/06 09:45:20;;;;;;;9.80;7.47;;;;;;;31.86;29.42;101812.28;4975724;28;20156;-71
2023/06/06 09:47:47;;;;;;;9.27;8.25;;;;;;;32.13;27.52;101808.72;4976204;28;20026;-72
2023/06/06 09:50:14;;;;;;;8.40;6.88;;;;;;;32.12;27.93;101809.78;4984213;28;20427;-71
2023/06/06 09:52:40;;;;;;;13.35;7.85;;;;;;;32.35;27.95;101819.72;4999798;28;20085;-70
2023/06/06 09:55:07;;;;;;;9.30;7.35;;;;;;;32.01;28.59;101815.81;5001786;28;20030;-71
2023/06/06 09:57:37;;;;;;;11.38;7.68;;;;;;;32.29;28.19;101815.88;4998282;28;20037;-69
2023/06/06 10:00:14;;;;;;;10.95;7.90;;;;;;;32.36;27.86;101814.03;4998002;28;20484;-70
2023/06/06 10:02:46;;;;;;;10.52;7.75;;;;;;;32.43;27.87;101800.34;4981421;28;20042;-71
2023/06/06 10:05:14;;;;;;;8.05;7.10;;;;;;;32.88;27.47;101806.41;4975226;28;20026;-69
2023/06/06 10:07:44;;;;;;;10.82;7.78;;;;;;;33.39;26.99;101809.69;4994999;28;20099;-70
2023/06/06 10:10:12;;;;;;;11.30;7.93;;;;;;;33.54;25.91;101803.19;4983225;28;20034;-70
2023/06/06 10:12:39;;;;;;;8.13;7.32;;;;;;;33.90;25.24;101806.50;4991265;28;20520;-73
2023/06/06 10:15:08;;;;;;;10.13;7.70;;;;;;;33.69;25.61;101806.63;4986298;28;20061;-70
2023/06/06 10:17:39;;;;;;;9.35;7.70;;;;;;;33.70;25.61;101809.19;4978504;28;20041;-71
2023/06/06 10:20:06;;;;;;;9.38;7.00;;;;;;;34.66;24.73;101808.09;4978789;28;20042;-71
2023/06/06 10:22:36;;;;;;;12.38;7.70;;;;;;;34.53;24.87;101806.19;4975559;28;20038;-72
2023/06/06 10:25:09;;;;;;;10.77;7.18;;;;;;;34.55;24.84;101800.44;4983992;28;20026;-72
2023/06/06 10:28:15;;;;;;;8.77;7.53;;;;;;;35.30;25.35;101795.41;4996225;28;20027;-68
2023/06/06 10:30:43;;;;;;;9.32;6.88;;;;;;;35.12;23.87;101807.19;4974149;28;20027;-71
2023/06/06 10:33:41;;;;;;;9.73;6.75;;;;;;;35.40;24.38;101806.84;4975808;28;20108;-71
2023/06/06 10:36:20;;;;;;;8.13;7.30;;;;;;;35.84;23.55;101805.16;4995254;23;20183;-69
2023/06/06 10:39:20;;;;;;;8.45;7.03;;;;;;;36.97;23.91;101794.03;5014982;28;20159;-69
2023/06/06 10:42:18;;;;;;;9.75;6.68;;;;;;;37.48;22.49;101800.28;5031342;28;20034;-69
2023/06/06 10:44:44;;;;;;;9.57;6.97;;;;;;;37.07;21.65;101797.09;5034687;28;20052;-70
2023/06/06 10:47:41;;;;;;;8.15;7.15;;;;;;;36.69;23.01;101799.22;5039350;28;20057;-70
2023/06/06 10:50:10;;;;;;;10.05;7.10;;;;;;;35.87;22.75;101793.66;5033972;28;20068;-70
2023/06/06 10:52:45;;;;;;;8.13;6.85;;;;;;;35.42;23.43;101790.88;5033288;28;20082;-71
2023/06/06 10:55:43;;;;;;;9.18;7.43;;;;;;;36.14;23.62;101791.56;5008967;28;20021;-70
2023/06/06 10:58:13;;;;;;;7.90;7.10;;;;;;;36.62;22.22;101788.16;5013365;28;20202;-69
2023/06/06 11:01:05;;;;;;;9.05;7.40;;;;;;;36.99;22.54;101791.88;5018034;28;20403;-69
2023/06/06 11:03:40;;;;;;;9.80;7.15;;;;;;;36.74;22.45;101783.56;5019999;28;20025;-69
2023/06/06 11:06:14;;;;;;;10.18;7.90;;;;;;;36.27;22.68;101785.06;5024044;28;20069;-68
2023/06/06 11:08:49;;;;;;;9.40;6.70;;;;;;;36.53;22.27;101775.69;5019715;28;20068;-69
2023/06/06 11:11:26;;;;;;;9.27;6.85;;;;;;;36.50;22.50;101777.00;5021341;28;20037;-69
2023/06/06 11:13:57;;;;;;;7.60;6.35;;;;;;;36.76;21.83;101772.25;5021712;28;20040;-71
2023/06/06 11:16:30;;;;;;;9.20;6.82;;;;;;;36.73;22.00;101778.25;5012757;28;20308;-70
2023/06/06 11:19:03;;;;;;;14.77;7.10;;;;;;;36.90;21.58;101771.88;5019600;28;20037;-71
2023/06/06 11:21:30;;;;;;;7.82;6.28;;;;;;;36.90;20.74;101768.25;5016623;28;20041;-69